Terminal Aerodrome Forecast
Issued by NWS Blacksburg, VA

Current Version | Previous Version | Graphics & Text | Print | Product List | Glossary On
Versions: 1 2 3 4 5 6 7 8 9 10 11 12 13 14 15 16 17
000
FTUS41 KRNK 091739
TAFBLF
TAF
KBLF 091739Z 0918/1018 26006KT P6SM BKN060
     FM091900 26007KT P6SM SCT060
     FM100000 28009KT P6SM VCSH BKN030
     FM100300 29013KT P6SM OVC010
     FM100600 29015G25KT 2SM -SHSN OVC010
     FM101100 29013KT P6SM OVC010=

USA.gov is the U.S. government's official web portal to all federal, state and local government web resources and services.